This is the latest recevied weather packets stored in our database for station/object EA4HBE-10. If no packets are shown the sender has not sent any weather packets the latest 10 day(s).
| Time | Temp. | Humidity | Pressure | Rain* | Wind** | Luminosity | Snow |
|---|---|---|---|---|---|---|---|
| 1777649204 | 20° C | 68% | 1018.2 hPa | - | - | - | - |
| 1777649186 | 20° C | 67% | 1018.4 hPa | - | - | - | - |
| 1777648285 | 21.11° C | 66% | 1018.5 hPa | - | - | - | - |
| 1777647385 | 21.67° C | 62% | 1018.4 hPa | - | - | - | - |
| 1777646485 | 21.67° C | 61% | 1018.7 hPa | - | - | - | - |
| 1777646468 | 21.67° C | 60% | 1018.7 hPa | - | - | - | - |
| 1777645568 | 21.11° C | 63% | 1018.6 hPa | - | - | - | - |
| 1777644666 | 21.67° C | 63% | 1018.9 hPa | - | - | - | - |
| 1777644647 | 21.11° C | 65% | 1018.8 hPa | - | - | - | - |
| 1777644443 | 21.11° C | 63% | 1018.9 hPa | - | - | - | - |
| 1777643543 | 21.67° C | 60% | 1018.9 hPa | - | - | - | - |
| 1777642643 | 21.11° C | 62% | 1018.8 hPa | - | - | - | - |
| 1777641743 | 21.11° C | 64% | 1018.9 hPa | - | - | - | - |
| 1777640843 | 20° C | 65% | 1018.8 hPa | - | - | - | - |
| 1777639942 | 24.44° C | 60% | 1018.7 hPa | - | - | - | - |
| 1777639770 | 24.44° C | 59% | 1018.7 hPa | - | - | - | - |
| 1777639166 | 26.11° C | 56% | 1018.8 hPa | - | - | - | - |
| 1777638659 | 25.56° C | 58% | 1018.8 hPa | - | - | - | - |
| 1777625449 | 19.44° C | 61% | 1020.1 hPa | - | - | - | - |
| 1777625365 | 19.44° C | 62% | 1020 hPa | - | - | - | - |
| 1777624601 | 19.44° C | 62% | 1020.1 hPa | - | - | - | - |
| 1777623701 | 19.44° C | 61% | 1020.1 hPa | - | - | - | - |
| 1777622801 | 18.89° C | 63% | 1019.9 hPa | - | - | - | - |
| 1777621901 | 20° C | 62% | 1020.1 hPa | - | - | - | - |
| 1777577961 | 23.89° C | 62% | 1019.5 hPa | - | - | - | - |
* Rain since midnight (hover to see other rain measurements)
** Current wind speed in m/s (hover to see current wind gust speed)